Time;durP1;ratioP1;P1;durP2;ratioP2;P2;SDS_P1;SDS_P2;PMS_P1;PMS_P2;Temp;Humidity;BMP_temperature;BMP_pressure;BME280_temperature;BME280_humidity;BME280_pressure;Samples;Min_cycle;Max_cycle;Signal;HPM_P1;HPM_P2
2023/09/12 00:00:06;;;;;;;31.83;25.63;;;19.50;99.90;;;;;;5006886;28;20057;-82
2023/09/12 00:02:32;;;;;;;30.92;25.45;;;19.50;99.90;;;;;;5004293;28;20060;-82
2023/09/12 00:04:57;;;;;;;29.15;24.23;;;19.50;99.90;;;;;;5001252;28;20018;-82
2023/09/12 00:07:23;;;;;;;31.05;26.75;;;19.50;99.90;;;;;;5005851;28;20025;-83
2023/09/12 00:09:48;;;;;;;41.60;30.70;;;19.50;99.90;;;;;;5009418;28;20032;-84
2023/09/12 00:12:15;;;;;;;31.60;26.63;;;19.40;99.90;;;;;;5005895;28;20025;-84
2023/09/12 00:14:41;;;;;;;33.40;27.10;;;19.40;99.90;;;;;;5006726;28;20018;-81
2023/09/12 00:17:06;;;;;;;35.70;28.25;;;19.40;99.90;;;;;;4990904;28;20023;-81
2023/09/12 00:19:32;;;;;;;39.15;29.17;;;19.40;99.90;;;;;;5002448;28;20389;-82
2023/09/12 00:21:57;;;;;;;36.72;28.10;;;19.40;99.90;;;;;;5011647;28;20021;-81
2023/09/12 00:24:23;;;;;;;31.13;27.63;;;19.40;99.90;;;;;;5007283;28;20369;-82
2023/09/12 00:26:48;;;;;;;30.98;24.55;;;19.40;99.90;;;;;;5021493;28;20041;-81
2023/09/12 00:29:14;;;;;;;34.35;27.20;;;19.40;99.90;;;;;;5010014;28;20025;-82
2023/09/12 00:31:39;;;;;;;36.63;28.92;;;19.40;99.90;;;;;;5005783;28;20022;-82
2023/09/12 00:34:05;;;;;;;32.22;24.52;;;19.50;99.90;;;;;;4999412;28;20042;-81
2023/09/12 00:36:30;;;;;;;34.97;26.15;;;19.40;99.90;;;;;;5007726;28;20554;-81
2023/09/12 00:38:56;;;;;;;36.72;28.55;;;19.40;99.90;;;;;;5006761;28;20025;-82
2023/09/12 00:41:22;;;;;;;37.13;27.85;;;19.40;99.90;;;;;;5011183;28;20034;-81
2023/09/12 00:43:48;;;;;;;34.55;27.40;;;19.40;99.90;;;;;;5013276;28;20619;-82
2023/09/12 00:46:19;;;;;;;31.58;25.85;;;19.40;99.90;;;;;;4999647;28;20548;-81
2023/09/12 00:48:46;;;;;;;34.90;26.10;;;19.40;99.90;;;;;;4999344;28;20129;-81
2023/09/12 00:51:14;;;;;;;28.23;21.58;;;19.30;99.90;;;;;;4997548;28;20520;-82
2023/09/12 00:53:40;;;;;;;33.35;25.70;;;19.30;99.90;;;;;;4996902;28;20109;-81
2023/09/12 00:56:06;;;;;;;33.80;25.48;;;19.30;99.90;;;;;;4997208;28;20609;-81
2023/09/12 00:58:32;;;;;;;37.03;27.77;;;19.30;99.90;;;;;;4999660;28;20049;-82
2023/09/12 01:00:58;;;;;;;32.60;26.88;;;19.30;99.90;;;;;;5014985;28;20029;-81
2023/09/12 01:03:24;;;;;;;36.47;27.38;;;19.30;99.90;;;;;;5015843;28;20613;-82
2023/09/12 01:05:51;;;;;;;31.40;26.27;;;19.30;99.90;;;;;;5005274;28;20434;-81
2023/09/12 01:08:16;;;;;;;31.45;25.95;;;19.30;99.90;;;;;;5005443;28;20049;-81
2023/09/12 01:10:45;;;;;;;36.00;27.02;;;19.20;99.90;;;;;;5019650;28;20031;-82
2023/09/12 01:13:13;;;;;;;27.70;22.00;;;19.20;99.90;;;;;;5004350;28;20117;-82
2023/09/12 01:15:38;;;;;;;29.38;24.55;;;19.20;99.90;;;;;;5007096;28;20022;-82
2023/09/12 01:18:04;;;;;;;27.83;23.40;;;19.20;99.90;;;;;;5000780;28;20026;-81
2023/09/12 01:20:32;;;;;;;27.33;23.90;;;19.10;99.90;;;;;;5004765;28;20586;-81
2023/09/12 01:23:15;;;;;;;29.38;21.65;;;19.10;99.90;;;;;;5000448;28;20101;-82
2023/09/12 01:26:03;;;;;;;31.55;25.52;;;19.10;99.90;;;;;;5010163;28;20022;-81
2023/09/12 01:28:31;;;;;;;28.75;22.50;;;19.10;99.90;;;;;;5003449;28;20030;-82
2023/09/12 01:31:00;;;;;;;31.98;23.95;;;19.00;99.90;;;;;;5007999;28;20030;-81
2023/09/12 01:33:25;;;;;;;24.58;20.15;;;19.10;99.90;;;;;;4995828;28;20121;-82
2023/09/12 01:35:51;;;;;;;26.75;21.92;;;19.10;99.90;;;;;;5011608;28;20121;-83
2023/09/12 01:38:16;;;;;;;23.42;19.38;;;19.00;99.90;;;;;;5003380;28;20092;-81
2023/09/12 01:40:51;;;;;;;26.83;22.35;;;19.00;99.90;;;;;;5010431;28;20030;-82
2023/09/12 01:43:19;;;;;;;29.40;22.35;;;19.00;99.90;;;;;;5006592;28;20046;-82
2023/09/12 01:45:52;;;;;;;28.70;23.27;;;19.00;99.90;;;;;;5021719;28;20040;-81
2023/09/12 01:48:21;;;;;;;31.70;24.35;;;19.10;99.90;;;;;;5004117;28;20030;-85
2023/09/12 01:50:47;;;;;;;24.90;19.55;;;19.10;99.90;;;;;;5002174;28;20033;-82
2023/09/12 01:53:14;;;;;;;33.55;24.33;;;19.10;99.90;;;;;;5001675;28;20033;-84
2023/09/12 01:55:44;;;;;;;31.35;25.23;;;19.10;99.90;;;;;;5008645;28;20044;-82
2023/09/12 01:58:11;;;;;;;28.20;22.65;;;19.10;99.90;;;;;;5024657;28;20032;-82
2023/09/12 02:00:37;;;;;;;31.73;22.70;;;19.10;99.90;;;;;;5023640;28;20022;-83
2023/09/12 02:03:03;;;;;;;29.02;23.40;;;19.10;99.90;;;;;;5018029;28;20219;-83
2023/09/12 02:05:29;;;;;;;28.83;23.98;;;19.10;99.90;;;;;;5004477;28;20038;-84
2023/09/12 02:07:55;;;;;;;30.50;23.92;;;19.10;99.90;;;;;;5013889;28;20028;-81
2023/09/12 02:10:20;;;;;;;25.77;21.48;;;19.10;99.90;;;;;;5007587;28;20030;-83
2023/09/12 02:12:46;;;;;;;27.27;20.75;;;19.10;99.90;;;;;;5001857;28;20014;-81
2023/09/12 02:15:12;;;;;;;28.67;22.35;;;19.10;99.90;;;;;;4998614;28;20108;-82
2023/09/12 02:17:38;;;;;;;31.80;24.25;;;19.10;99.90;;;;;;5000380;28;20037;-81
2023/09/12 02:20:06;;;;;;;33.63;26.90;;;19.10;99.90;;;;;;4995293;28;20542;-81
2023/09/12 02:22:32;;;;;;;25.20;20.63;;;19.10;99.90;;;;;;5010932;28;20101;-82
2023/09/12 02:24:57;;;;;;;25.45;21.05;;;19.00;99.90;;;;;;5001567;28;20109;-81
2023/09/12 02:27:23;;;;;;;30.75;24.42;;;19.10;99.90;;;;;;5014001;28;20558;-81
2023/09/12 02:29:48;;;;;;;30.13;22.33;;;19.00;99.90;;;;;;5012679;28;20016;-81
2023/09/12 02:32:14;;;;;;;31.52;23.63;;;19.10;99.90;;;;;;5013099;28;20031;-81
2023/09/12 02:34:39;;;;;;;29.52;22.52;;;19.10;99.90;;;;;;5013910;28;20030;-81
2023/09/12 02:37:05;;;;;;;28.33;21.45;;;19.10;99.90;;;;;;4998746;28;20069;-81
2023/09/12 02:39:30;;;;;;;29.60;22.85;;;19.10;99.90;;;;;;5006392;28;20571;-82
2023/09/12 02:41:56;;;;;;;27.17;21.90;;;19.10;99.90;;;;;;5005128;28;20473;-82
2023/09/12 02:44:21;;;;;;;24.25;20.17;;;19.10;99.90;;;;;;5008574;28;20025;-84
2023/09/12 02:46:48;;;;;;;24.67;20.27;;;19.10;99.90;;;;;;5001764;28;20023;-83
2023/09/12 02:49:14;;;;;;;24.77;19.02;;;19.10;99.90;;;;;;5006428;28;20017;-82
2023/09/12 02:51:40;;;;;;;27.70;18.73;;;19.00;99.90;;;;;;4996954;28;20509;-81
2023/09/12 02:54:05;;;;;;;22.48;19.58;;;19.00;99.90;;;;;;5014821;28;20037;-83
2023/09/12 02:56:31;;;;;;;28.02;21.70;;;19.00;99.90;;;;;;5003538;28;20128;-83
2023/09/12 02:58:57;;;;;;;23.48;19.55;;;19.00;99.90;;;;;;5008854;28;20093;-82
2023/09/12 03:01:24;;;;;;;25.58;21.05;;;19.00;99.90;;;;;;5013150;28;20037;-83
2023/09/12 03:03:51;;;;;;;24.75;19.05;;;19.10;99.90;;;;;;5010871;28;20041;-84
2023/09/12 03:06:20;;;;;;;23.60;18.88;;;19.10;99.90;;;;;;5016687;28;20046;-82
2023/09/12 03:08:46;;;;;;;25.85;20.58;;;19.10;99.90;;;;;;5000514;28;20495;-82
2023/09/12 03:11:12;;;;;;;20.52;16.35;;;19.10;99.90;;;;;;5004971;28;20068;-83
2023/09/12 03:13:41;;;;;;;28.52;20.40;;;19.10;99.90;;;;;;5016588;28;20022;-82
2023/09/12 03:16:10;;;;;;;30.88;21.83;;;19.10;99.90;;;;;;5011458;28;20868;-82
2023/09/12 03:18:36;;;;;;;23.85;19.92;;;19.10;99.90;;;;;;5006744;28;20553;-82
2023/09/12 03:21:02;;;;;;;24.60;20.67;;;19.10;99.90;;;;;;5006638;28;20052;-81
2023/09/12 03:23:27;;;;;;;25.58;17.75;;;19.10;99.90;;;;;;5011369;28;20374;-83
2023/09/12 03:25:53;;;;;;;25.17;18.83;;;19.10;99.90;;;;;;5007771;28;20022;-84
2023/09/12 03:28:18;;;;;;;27.30;19.75;;;19.10;99.90;;;;;;5013844;28;20018;-83
2023/09/12 03:30:44;;;;;;;26.52;19.88;;;19.10;99.90;;;;;;4998966;28;20085;-82
2023/09/12 03:33:09;;;;;;;24.02;19.65;;;19.10;99.90;;;;;;5021753;28;20017;-84
2023/09/12 03:35:35;;;;;;;23.40;19.98;;;19.10;99.90;;;;;;5005265;28;20030;-82
2023/09/12 03:38:01;;;;;;;22.08;18.02;;;19.10;99.90;;;;;;5001482;28;20033;-82
2023/09/12 03:40:30;;;;;;;21.92;18.23;;;19.10;99.90;;;;;;5006026;28;20635;-82
2023/09/12 03:42:56;;;;;;;24.70;18.65;;;19.00;99.90;;;;;;5000981;28;20030;-82
2023/09/12 03:45:21;;;;;;;31.60;22.67;;;19.00;99.90;;;;;;5012823;28;20025;-86
2023/09/12 03:47:47;;;;;;;27.48;20.95;;;19.00;99.90;;;;;;5010755;28;20025;-83
2023/09/12 03:50:13;;;;;;;25.85;19.13;;;19.00;99.90;;;;;;4998830;28;20045;-83
2023/09/12 03:52:39;;;;;;;28.70;21.60;;;19.00;99.90;;;;;;5000729;28;20026;-82
2023/09/12 03:55:05;;;;;;;23.23;17.60;;;19.00;99.90;;;;;;4999173;28;20489;-82
2023/09/12 03:57:31;;;;;;;24.20;18.40;;;19.00;99.90;;;;;;5005725;28;20532;-83
2023/09/12 03:59:57;;;;;;;28.88;21.40;;;19.00;99.90;;;;;;4999414;28;20026;-82
2023/09/12 04:02:22;;;;;;;25.85;18.50;;;19.00;99.90;;;;;;5005959;28;20029;-82
2023/09/12 04:04:48;;;;;;;27.55;21.35;;;19.00;99.90;;;;;;5009012;28;20014;-83
2023/09/12 04:07:13;;;;;;;27.13;19.65;;;19.00;99.90;;;;;;5006202;28;20870;-83
2023/09/12 04:09:39;;;;;;;33.47;23.42;;;19.00;99.90;;;;;;5004522;28;20025;-84
2023/09/12 04:12:06;;;;;;;26.77;20.05;;;19.00;99.90;;;;;;5007402;28;20105;-85
2023/09/12 04:14:32;;;;;;;25.80;19.13;;;19.00;99.90;;;;;;5005623;28;20030;-83
2023/09/12 04:16:57;;;;;;;25.33;21.98;;;19.00;99.90;;;;;;5008603;28;20420;-83
2023/09/12 04:19:25;;;;;;;26.88;20.40;;;18.90;99.90;;;;;;5001612;28;20488;-82
2023/09/12 04:21:50;;;;;;;30.08;21.80;;;19.00;99.90;;;;;;5012421;28;20060;-82
2023/09/12 04:24:17;;;;;;;25.40;18.98;;;19.00;99.90;;;;;;5005140;28;20052;-82
2023/09/12 04:26:43;;;;;;;30.15;22.98;;;19.00;99.90;;;;;;5003126;28;20565;-82
2023/09/12 04:29:09;;;;;;;27.42;20.70;;;19.00;99.90;;;;;;5001556;28;20045;-82
2023/09/12 04:31:35;;;;;;;24.35;19.58;;;19.00;99.90;;;;;;5008972;28;20671;-83
2023/09/12 04:34:01;;;;;;;30.73;20.27;;;19.00;99.90;;;;;;5016575;28;20030;-83
2023/09/12 04:36:26;;;;;;;23.60;20.05;;;19.00;99.90;;;;;;4998527;28;20045;-84
2023/09/12 04:38:52;;;;;;;24.52;19.55;;;18.90;99.90;;;;;;5009347;28;20018;-82
2023/09/12 04:41:17;;;;;;;26.88;18.95;;;19.00;99.90;;;;;;5017247;28;20493;-82
2023/09/12 04:43:44;;;;;;;25.88;20.08;;;18.90;99.90;;;;;;5020580;28;20014;-82
2023/09/12 04:46:10;;;;;;;30.10;22.20;;;18.90;99.90;;;;;;5017502;28;20025;-83
2023/09/12 04:48:36;;;;;;;25.23;22.02;;;18.90;99.90;;;;;;5006519;28;20022;-83
2023/09/12 04:51:02;;;;;;;31.05;22.10;;;18.90;99.90;;;;;;5011263;28;20097;-83
2023/09/12 04:53:33;;;;;;;29.25;21.27;;;18.90;99.90;;;;;;5004943;28;20438;-84
2023/09/12 04:55:59;;;;;;;26.75;20.98;;;18.80;99.90;;;;;;5007687;28;20045;-83
2023/09/12 04:58:24;;;;;;;31.67;24.75;;;18.90;99.90;;;;;;5014050;28;20108;-83
2023/09/12 05:00:50;;;;;;;26.85;21.02;;;18.80;99.90;;;;;;5010240;28;20017;-83
2023/09/12 05:03:16;;;;;;;31.90;23.73;;;18.80;99.90;;;;;;5010405;28;20026;-83
2023/09/12 05:05:41;;;;;;;34.70;26.65;;;18.80;99.90;;;;;;5015316;28;20022;-83
2023/09/12 05:08:07;;;;;;;32.17;24.60;;;18.80;99.90;;;;;;5007419;28;20021;-83
2023/09/12 05:10:32;;;;;;;34.95;25.23;;;18.80;99.90;;;;;;5022373;28;20028;-83
2023/09/12 05:12:58;;;;;;;38.22;27.00;;;18.80;99.90;;;;;;5009646;28;20025;-83
2023/09/12 05:15:24;;;;;;;32.47;26.33;;;18.80;99.90;;;;;;5000928;28;20018;-83
2023/09/12 05:17:49;;;;;;;32.95;25.80;;;18.80;99.90;;;;;;5017910;28;20105;-84
2023/09/12 05:20:15;;;;;;;35.55;25.75;;;18.80;99.90;;;;;;5024286;28;20569;-83
2023/09/12 05:22:40;;;;;;;32.38;25.48;;;18.80;99.90;;;;;;5014291;28;20021;-84
2023/09/12 05:25:06;;;;;;;30.88;24.38;;;18.90;99.90;;;;;;5024160;28;20068;-83
2023/09/12 05:27:32;;;;;;;34.67;25.27;;;18.80;99.90;;;;;;5019909;28;20010;-85
2023/09/12 05:29:57;;;;;;;38.33;26.58;;;18.90;99.90;;;;;;5014603;28;20028;-84
2023/09/12 05:32:23;;;;;;;33.83;24.95;;;18.80;99.90;;;;;;5024560;28;20022;-85
2023/09/12 05:34:49;;;;;;;32.45;23.83;;;18.80;99.90;;;;;;5018781;28;20030;-84
2023/09/12 05:37:15;;;;;;;37.72;27.50;;;18.80;99.90;;;;;;5021110;28;20680;-85
2023/09/12 05:39:41;;;;;;;33.08;24.20;;;18.80;99.90;;;;;;5018502;28;20021;-85
2023/09/12 05:42:07;;;;;;;34.95;26.48;;;18.80;99.90;;;;;;5016539;28;20018;-86
2023/09/12 05:44:32;;;;;;;35.33;26.77;;;18.80;99.90;;;;;;5027715;28;20064;-86
2023/09/12 05:46:58;;;;;;;33.88;25.00;;;18.80;99.90;;;;;;5034742;28;20037;-85
2023/09/12 05:49:23;;;;;;;44.17;29.58;;;18.80;99.90;;;;;;5014411;28;20480;-86
2023/09/12 05:51:49;;;;;;;39.85;26.23;;;18.80;99.90;;;;;;5011062;28;20109;-85
2023/09/12 05:54:15;;;;;;;33.08;26.42;;;18.80;99.90;;;;;;5013644;28;20100;-85
2023/09/12 05:56:41;;;;;;;32.75;25.98;;;18.80;99.90;;;;;;5007704;28;20023;-84
2023/09/12 05:59:06;;;;;;;34.28;24.70;;;18.90;99.90;;;;;;5012487;28;20029;-84
2023/09/12 06:01:32;;;;;;;35.95;26.55;;;18.80;99.90;;;;;;5008620;28;20037;-87
2023/09/12 06:03:58;;;;;;;34.30;25.15;;;18.80;99.90;;;;;;5006197;28;20037;-85
2023/09/12 06:06:23;;;;;;;34.63;26.30;;;18.80;99.90;;;;;;5009778;28;20106;-85
2023/09/12 06:08:49;;;;;;;34.75;27.92;;;18.90;99.90;;;;;;5003567;28;20482;-84
2023/09/12 06:11:14;;;;;;;33.03;24.35;;;18.90;99.90;;;;;;5006815;28;20640;-84
2023/09/12 06:13:40;;;;;;;31.13;24.17;;;18.90;99.90;;;;;;5024476;28;20037;-85
2023/09/12 06:16:06;;;;;;;33.85;24.42;;;18.90;99.90;;;;;;5012441;28;20085;-85
2023/09/12 06:18:35;;;;;;;29.70;23.55;;;18.90;99.90;;;;;;5015709;28;20021;-85
2023/09/12 06:21:04;;;;;;;39.35;29.17;;;18.90;99.90;;;;;;5002481;28;20030;-85
2023/09/12 06:23:30;;;;;;;44.17;30.60;;;19.00;99.90;;;;;;5011790;28;20516;-84
2023/09/12 06:25:55;;;;;;;44.30;29.02;;;19.00;99.90;;;;;;5012562;28;20052;-84
2023/09/12 06:28:28;;;;;;;38.42;27.98;;;19.00;99.90;;;;;;5020773;28;20016;-85
2023/09/12 06:30:53;;;;;;;38.88;28.20;;;19.10;99.90;;;;;;5008017;28;20088;-86
2023/09/12 06:33:19;;;;;;;36.53;26.00;;;19.10;99.90;;;;;;5017725;28;20061;-84
2023/09/12 06:35:49;;;;;;;43.00;29.15;;;19.10;99.90;;;;;;5008139;28;20097;-85
2023/09/12 06:38:14;;;;;;;46.22;29.88;;;19.20;99.90;;;;;;5008834;28;20026;-84
2023/09/12 06:40:42;;;;;;;44.42;30.05;;;19.30;99.90;;;;;;5008761;28;20392;-84
2023/09/12 06:43:07;;;;;;;45.15;28.73;;;19.30;99.90;;;;;;5019595;28;20018;-84
2023/09/12 06:45:33;;;;;;;39.55;28.02;;;19.30;99.90;;;;;;5013075;28;20025;-84
2023/09/12 06:47:58;;;;;;;43.85;29.58;;;19.30;99.90;;;;;;5006873;28;20015;-84
2023/09/12 06:50:24;;;;;;;46.05;30.13;;;19.30;99.90;;;;;;5014606;28;20010;-84
2023/09/12 06:52:49;;;;;;;35.75;25.38;;;19.30;99.90;;;;;;5015845;28;20017;-82
2023/09/12 06:55:15;;;;;;;43.13;29.17;;;19.30;99.90;;;;;;5008562;28;20014;-83
2023/09/12 06:57:40;;;;;;;47.65;31.65;;;19.30;99.90;;;;;;5019336;28;20020;-85
2023/09/12 07:00:07;;;;;;;42.30;29.27;;;19.30;99.90;;;;;;5006065;28;20014;-83
2023/09/12 07:02:33;;;;;;;39.83;26.40;;;19.30;99.90;;;;;;5003384;28;20018;-84
2023/09/12 07:04:58;;;;;;;37.13;26.77;;;19.30;99.90;;;;;;5012392;28;20026;-85
2023/09/12 07:07:24;;;;;;;45.00;29.25;;;19.30;99.90;;;;;;4999061;28;20042;-84
2023/09/12 07:09:50;;;;;;;45.45;29.30;;;19.40;99.90;;;;;;5015021;28;20141;-85
2023/09/12 07:12:15;;;;;;;43.25;30.00;;;19.40;99.90;;;;;;5005360;28;20036;-83
2023/09/12 07:14:40;;;;;;;39.53;28.17;;;19.40;99.90;;;;;;5013762;28;20533;-84
2023/09/12 07:17:07;;;;;;;40.83;27.17;;;19.40;99.90;;;;;;5016035;28;20032;-83
2023/09/12 07:19:33;;;;;;;41.55;28.52;;;19.40;99.90;;;;;;5012976;28;20497;-85
2023/09/12 07:21:58;;;;;;;37.38;27.10;;;19.50;99.90;;;;;;5015806;28;20147;-83
2023/09/12 07:24:27;;;;;;;35.85;25.92;;;19.40;99.90;;;;;;5005507;28;20022;-84
2023/09/12 07:26:53;;;;;;;36.03;26.52;;;19.50;99.90;;;;;;5000849;28;20563;-84
2023/09/12 07:29:19;;;;;;;44.33;29.42;;;19.50;99.90;;;;;;5014581;28;20045;-85
2023/09/12 07:31:45;;;;;;;42.08;29.20;;;19.50;99.90;;;;;;5005283;28;20041;-84
2023/09/12 07:34:11;;;;;;;33.05;25.52;;;19.50;99.90;;;;;;5002465;28;20103;-83
2023/09/12 07:36:37;;;;;;;35.78;25.98;;;19.50;99.90;;;;;;5010148;28;20028;-85
2023/09/12 07:39:04;;;;;;;37.50;28.15;;;19.50;99.90;;;;;;5013437;28;20017;-83
2023/09/12 07:41:30;;;;;;;36.58;26.45;;;19.50;99.90;;;;;;5026974;28;20061;-83
2023/09/12 07:43:55;;;;;;;38.78;26.70;;;19.60;99.90;;;;;;5008282;28;20060;-83
2023/09/12 07:46:21;;;;;;;38.03;25.17;;;19.50;99.90;;;;;;5004623;28;20014;-83
2023/09/12 07:48:47;;;;;;;33.92;24.60;;;19.60;99.90;;;;;;5012437;28;20026;-83
2023/09/12 07:51:14;;;;;;;34.33;26.30;;;19.60;99.90;;;;;;5006873;28;20118;-83
2023/09/12 07:53:40;;;;;;;36.53;26.58;;;19.60;99.90;;;;;;5006582;28;20022;-83
2023/09/12 07:56:05;;;;;;;29.52;22.13;;;19.60;99.90;;;;;;5012982;28;20024;-84
2023/09/12 07:58:31;;;;;;;33.55;24.98;;;19.70;99.90;;;;;;4999858;28;20034;-83
2023/09/12 08:00:57;;;;;;;33.45;24.95;;;19.70;99.90;;;;;;5013273;28;20029;-83
2023/09/12 08:03:22;;;;;;;36.05;25.13;;;19.70;99.90;;;;;;5011386;28;20114;-83
2023/09/12 08:05:56;;;;;;;33.08;24.58;;;19.70;99.90;;;;;;5001498;28;20050;-87
2023/09/12 08:08:22;;;;;;;35.70;26.95;;;19.80;99.90;;;;;;5011628;28;20025;-84
2023/09/12 08:10:48;;;;;;;34.80;25.15;;;19.80;99.90;;;;;;5007277;28;20025;-85
2023/09/12 08:13:14;;;;;;;32.58;24.60;;;19.80;99.90;;;;;;5018058;28;20022;-84
2023/09/12 08:15:39;;;;;;;26.63;20.88;;;19.80;99.90;;;;;;5022138;28;20036;-84
2023/09/12 08:18:05;;;;;;;36.58;25.83;;;19.90;99.90;;;;;;4994284;28;20054;-85
2023/09/12 08:20:30;;;;;;;32.97;25.05;;;19.90;99.90;;;;;;5019442;28;20025;-84
2023/09/12 08:22:56;;;;;;;35.67;25.30;;;20.00;99.90;;;;;;5018190;28;20503;-83
2023/09/12 08:25:21;;;;;;;33.50;23.67;;;20.10;99.90;;;;;;5006230;28;20426;-83
2023/09/12 08:27:47;;;;;;;29.63;23.48;;;20.10;99.90;;;;;;5021285;28;20072;-83
2023/09/12 08:30:13;;;;;;;31.52;22.75;;;20.20;99.90;;;;;;5011606;28;20022;-82
2023/09/12 08:32:43;;;;;;;26.63;21.10;;;20.20;99.90;;;;;;5011527;28;20117;-84
2023/09/12 08:35:10;;;;;;;29.13;23.13;;;20.30;99.90;;;;;;5000376;28;20305;-84
2023/09/12 08:37:36;;;;;;;28.60;20.27;;;20.40;99.90;;;;;;5006544;28;20417;-84
2023/09/12 08:40:01;;;;;;;31.33;22.70;;;20.50;99.90;;;;;;5002984;28;20029;-84
2023/09/12 08:42:28;;;;;;;27.30;20.92;;;20.60;99.90;;;;;;5001414;28;20439;-84
2023/09/12 08:44:53;;;;;;;29.65;22.20;;;20.60;99.90;;;;;;5014994;28;20438;-85
2023/09/12 08:47:22;;;;;;;28.58;20.63;;;20.70;99.90;;;;;;5020382;28;20109;-84
2023/09/12 08:49:48;;;;;;;27.55;20.73;;;20.70;99.90;;;;;;5007814;28;20027;-84
2023/09/12 08:52:13;;;;;;;32.45;23.80;;;20.80;99.90;;;;;;5011724;28;20036;-84
2023/09/12 08:54:39;;;;;;;26.85;20.25;;;20.80;99.90;;;;;;5001769;28;20027;-85
2023/09/12 08:57:10;;;;;;;29.85;21.90;;;20.90;99.90;;;;;;5004771;28;20026;-84
2023/09/12 08:59:37;;;;;;;26.63;20.67;;;20.90;99.90;;;;;;5020806;28;20033;-84
2023/09/12 09:02:07;;;;;;;22.52;19.85;;;20.90;99.90;;;;;;5013682;28;20116;-84
2023/09/12 09:04:34;;;;;;;21.08;18.58;;;21.00;99.90;;;;;;5013431;28;20370;-86
2023/09/12 09:07:01;;;;;;;25.27;18.10;;;21.00;99.90;;;;;;5003526;28;20018;-85
2023/09/12 09:09:30;;;;;;;21.15;17.90;;;21.00;99.90;;;;;;5020347;28;20036;-85
2023/09/12 09:12:34;;;;;;;18.77;16.48;;;21.10;99.90;;;;;;5011300;28;20368;-85
2023/09/12 09:15:41;;;;;;;24.10;17.83;;;21.20;99.90;;;;;;5013274;28;20025;-88
2023/09/12 09:18:06;;;;;;;;;;;21.30;99.90;;;;;;5016274;28;20025;-85
2023/09/12 09:20:37;;;;;;;20.50;16.48;;;21.30;99.90;;;;;;5002680;28;20403;-85
2023/09/12 09:23:10;;;;;;;20.70;16.50;;;21.30;99.90;;;;;;4999525;28;20027;-87
2023/09/12 09:25:40;;;;;;;17.40;15.15;;;21.20;99.90;;;;;;5016076;28;20069;-85
2023/09/12 09:28:22;;;;;;;19.00;16.05;;;21.30;99.90;;;;;;5020537;28;20029;-85
2023/09/12 09:30:50;;;;;;;22.10;15.98;;;21.30;99.90;;;;;;5016584;28;20022;-84
2023/09/12 09:33:16;;;;;;;22.00;17.33;;;21.30;99.90;;;;;;5008539;28;20030;-83
2023/09/12 09:35:46;;;;;;;17.98;14.25;;;21.40;99.90;;;;;;5017737;28;20420;-86
2023/09/12 09:38:16;;;;;;;14.05;12.32;;;21.40;99.90;;;;;;5016445;28;20444;-83
2023/09/12 09:40:43;;;;;;;14.45;11.88;;;21.50;99.90;;;;;;5003175;28;20286;-84
2023/09/12 09:43:09;;;;;;;21.38;14.38;;;21.50;99.90;;;;;;5017258;28;20025;-84
2023/09/12 09:45:46;;;;;;;18.08;15.45;;;21.60;99.90;;;;;;5003029;28;20084;-84
2023/09/12 09:48:20;;;;;;;13.82;12.45;;;21.60;99.90;;;;;;5024829;28;20025;-84
2023/09/12 09:50:45;;;;;;;17.88;13.25;;;21.60;99.90;;;;;;5010075;28;20026;-87
2023/09/12 09:53:11;;;;;;;14.52;12.23;;;21.60;99.90;;;;;;5014175;28;20037;-86
2023/09/12 09:55:36;;;;;;;18.48;13.75;;;21.70;99.90;;;;;;5015349;28;20068;-83
2023/09/12 09:58:05;;;;;;;15.57;12.95;;;21.70;99.90;;;;;;5013677;28;20018;-82
2023/09/12 10:00:34;;;;;;;14.88;11.50;;;21.80;99.90;;;;;;5001968;28;20032;-85
2023/09/12 10:03:03;;;;;;;16.13;13.23;;;21.90;99.90;;;;;;5012508;28;20014;-84
2023/09/12 10:05:31;;;;;;;14.88;11.65;;;21.90;99.90;;;;;;5012455;28;20104;-85
2023/09/12 10:07:58;;;;;;;11.98;10.45;;;21.90;99.90;;;;;;5020960;28;20266;-83
2023/09/12 10:10:25;;;;;;;16.85;13.68;;;21.90;99.90;;;;;;5005473;28;20052;-83
2023/09/12 10:12:58;;;;;;;16.30;12.63;;;22.00;99.90;;;;;;4996938;28;20469;-85
2023/09/12 10:15:28;;;;;;;13.57;11.65;;;21.90;99.90;;;;;;5007202;28;20018;-86
2023/09/12 10:17:59;;;;;;;14.20;11.85;;;22.00;99.90;;;;;;5000892;28;20018;-84
2023/09/12 10:20:36;;;;;;;19.42;14.07;;;22.00;99.90;;;;;;5012545;28;20079;-84
2023/09/12 10:23:36;;;;;;;17.67;11.77;;;22.00;99.90;;;;;;5023323;28;20029;-83
2023/09/12 10:26:03;;;;;;;12.63;11.15;;;22.00;99.90;;;;;;5021002;28;20103;-83
2023/09/12 10:28:29;;;;;;;13.88;10.50;;;22.00;99.90;;;;;;5017610;28;20025;-84
2023/09/12 10:30:57;;;;;;;11.05;9.02;;;22.10;99.90;;;;;;5007004;28;20049;-85
2023/09/12 10:33:23;;;;;;;9.68;8.50;;;22.10;99.90;;;;;;5007031;28;20117;-84
2023/09/12 10:35:50;;;;;;;13.23;10.13;;;22.00;99.90;;;;;;5009085;28;20057;-84
2023/09/12 10:38:18;;;;;;;14.35;10.93;;;22.00;99.90;;;;;;5008294;28;20056;-83
2023/09/12 10:40:44;;;;;;;12.55;9.80;;;22.10;99.90;;;;;;5016436;28;20351;-85
2023/09/12 10:43:11;;;;;;;11.52;10.25;;;22.10;99.90;;;;;;5012608;28;20105;-84
2023/09/12 10:45:37;;;;;;;15.90;11.95;;;22.10;99.90;;;;;;5013050;28;20068;-84
2023/09/12 10:48:04;;;;;;;12.88;10.85;;;22.10;99.90;;;;;;5002368;28;20069;-85
2023/09/12 10:50:29;;;;;;;12.02;10.38;;;22.00;99.90;;;;;;5018172;28;20080;-84
2023/09/12 10:53:07;;;;;;;11.18;9.40;;;21.90;99.90;;;;;;5000409;28;20102;-84
2023/09/12 10:55:33;;;;;;;12.75;9.43;;;21.90;99.90;;;;;;5008246;28;20037;-85
2023/09/12 10:58:04;;;;;;;10.38;9.35;;;21.80;99.90;;;;;;5013335;28;20396;-83
2023/09/12 11:00:32;;;;;;;10.70;9.02;;;21.80;99.90;;;;;;5010923;28;20014;-85
2023/09/12 11:03:02;;;;;;;10.98;9.60;;;21.80;99.90;;;;;;5020437;28;20059;-83
2023/09/12 11:05:27;;;;;;;9.48;8.45;;;21.80;99.90;;;;;;5002285;28;20034;-84
2023/09/12 11:07:58;;;;;;;9.05;8.10;;;21.80;99.90;;;;;;5008919;28;20018;-83
2023/09/12 11:10:24;;;;;;;11.07;8.43;;;21.80;99.90;;;;;;5012335;28;20104;-84
2023/09/12 11:12:56;;;;;;;9.65;8.70;;;21.80;99.90;;;;;;5009431;28;20397;-84
2023/09/12 11:15:25;;;;;;;10.05;8.98;;;21.70;99.90;;;;;;4999381;28;21537;-83
2023/09/12 11:18:11;;;;;;;9.50;8.43;;;21.70;99.90;;;;;;5008969;28;20034;-88
2023/09/12 11:21:03;;;;;;;11.85;9.88;;;21.70;99.90;;;;;;5017831;28;20042;-84
2023/09/12 11:23:29;;;;;;;11.13;8.80;;;21.80;99.90;;;;;;5013114;28;20045;-84
2023/09/12 11:26:06;;;;;;;9.13;7.95;;;21.70;99.90;;;;;;5003584;28;20621;-83
2023/09/12 11:28:32;;;;;;;11.77;9.77;;;21.80;99.90;;;;;;5010886;28;20469;-83
2023/09/12 11:30:57;;;;;;;13.10;10.52;;;21.80;99.90;;;;;;5018013;28;20032;-84
2023/09/12 11:33:25;;;;;;;11.27;10.07;;;21.70;99.90;;;;;;5030371;28;20112;-84
2023/09/12 11:35:54;;;;;;;12.50;10.82;;;21.70;99.90;;;;;;5020746;28;20033;-88
2023/09/12 11:38:27;;;;;;;10.35;9.35;;;21.60;99.90;;;;;;5021684;28;20034;-88
2023/09/12 11:40:53;;;;;;;11.38;10.27;;;21.60;99.90;;;;;;5025810;28;20046;-88
2023/09/12 11:43:24;;;;;;;13.00;10.85;;;21.60;99.90;;;;;;5011399;28;20026;-86
2023/09/12 11:45:51;;;;;;;13.57;10.75;;;21.60;99.90;;;;;;5023372;28;20022;-83
2023/09/12 11:48:17;;;;;;;12.30;10.20;;;21.60;99.90;;;;;;5010778;28;20026;-83
2023/09/12 11:50:42;;;;;;;12.88;10.52;;;21.50;99.90;;;;;;5018132;28;20036;-85
2023/09/12 11:53:10;;;;;;;11.68;9.93;;;21.50;99.90;;;;;;5000174;28;20038;-84
2023/09/12 11:55:47;;;;;;;12.52;10.48;;;21.50;99.90;;;;;;5004693;28;20036;-83
2023/09/12 11:58:16;;;;;;;12.00;9.63;;;21.50;99.90;;;;;;5000004;28;20057;-85
2023/09/12 12:00:51;;;;;;;11.30;8.85;;;21.40;99.90;;;;;;5009433;28;20072;-83
2023/09/12 12:03:18;;;;;;;11.90;10.52;;;21.40;99.90;;;;;;5003058;28;20509;-86
2023/09/12 12:05:43;;;;;;;10.90;9.55;;;21.40;99.90;;;;;;5011032;28;20071;-84
2023/09/12 12:08:11;;;;;;;10.63;9.50;;;21.50;99.90;;;;;;5020291;28;20094;-85
2023/09/12 12:10:38;;;;;;;11.10;8.82;;;21.40;99.90;;;;;;4996605;28;20030;-85
2023/09/12 12:13:04;;;;;;;13.50;10.23;;;21.40;99.90;;;;;;5005475;28;20473;-83
2023/09/12 12:15:30;;;;;;;12.80;11.15;;;21.40;99.90;;;;;;5007888;28;20082;-89
2023/09/12 12:17:56;;;;;;;15.23;11.45;;;21.50;99.90;;;;;;5033770;28;20085;-88
2023/09/12 12:20:22;;;;;;;13.27;11.93;;;21.40;99.90;;;;;;4996558;28;20118;-85
2023/09/12 12:22:48;;;;;;;20.02;15.50;;;21.50;99.90;;;;;;5011797;28;20023;-83
2023/09/12 12:25:15;;;;;;;17.60;15.65;;;21.40;99.90;;;;;;5014787;28;20150;-85
2023/09/12 12:27:42;;;;;;;17.02;15.23;;;21.40;99.90;;;;;;5010549;28;20546;-84